Time;durP1;ratioP1;P1;durP2;ratioP2;P2;SDS_P1;SDS_P2;PMS_P1;PMS_P2;Temp;Humidity;BMP_temperature;BMP_pressure;BME280_temperature;BME280_humidity;BME280_pressure;Samples;Min_cycle;Max_cycle;Signal;HPM_P1;HPM_P2
2022/01/26 00:06:40;;;;;;;87.43;54.78;;;;;;;3.35;100.00;103277.56;5092184;28;20044;-56
2022/01/26 00:09:06;;;;;;;81.53;52.13;;;;;;;3.42;100.00;103282.16;5091150;28;20072;-52
2022/01/26 00:11:32;;;;;;;81.13;51.05;;;;;;;2.97;100.00;103205.94;5092341;28;20391;-57
2022/01/26 00:13:59;;;;;;;80.60;51.13;;;;;;;3.40;100.00;103282.09;5091172;28;20028;-57
2022/01/26 00:18:54;;;;;;;86.18;53.67;;;;;;;3.42;100.00;103275.22;5092212;28;20480;-52
2022/01/26 00:21:28;;;;;;;81.95;53.40;;;;;;;3.00;100.00;103193.03;5090858;28;20036;-49
2022/01/26 00:26:29;;;;;;;86.35;53.97;;;;;;;3.47;100.00;103256.28;5091141;28;20494;-53
2022/01/26 00:29:15;;;;;;;84.75;54.25;;;;;;;3.48;100.00;103274.56;5092356;28;20111;-55
2022/01/26 00:43:23;;;;;;;88.25;55.42;;;;;;;3.52;100.00;103254.72;5086979;28;20139;-55
2022/01/26 00:45:55;;;;;;;84.45;53.78;;;;;;;3.55;100.00;103255.72;5091912;28;20032;-53
2022/01/26 00:48:20;;;;;;;87.20;54.53;;;;;;;3.55;100.00;103254.84;5091779;28;20028;-56
2022/01/26 00:50:50;;;;;;;86.53;54.47;;;;;;;3.57;100.00;103245.34;5090377;28;20035;-54
2022/01/26 00:53:16;;;;;;;87.53;56.78;;;;;;;2.94;100.00;103132.09;5091786;28;20035;-58
2022/01/26 00:55:42;;;;;;;89.53;54.45;;;;;;;3.54;100.00;103248.72;5090744;28;20454;-55
2022/01/26 00:58:07;;;;;;;84.50;55.10;;;;;;;3.47;100.00;103228.53;5090747;28;20089;-55
2022/01/26 01:00:33;;;;;;;86.47;56.50;;;;;;;3.38;100.00;103208.28;5091679;28;20525;-57
2022/01/26 01:02:58;;;;;;;88.07;56.60;;;;;;;3.46;100.00;103218.06;5090084;28;20052;-53
2022/01/26 01:05:31;;;;;;;87.82;55.15;;;;;;;3.43;100.00;103208.44;5091735;28;20074;-55
2022/01/26 01:08:04;;;;;;;91.85;56.28;;;;;;;3.52;100.00;103229.56;5092010;28;20086;-51
2022/01/26 01:10:30;;;;;;;85.65;53.65;;;;;;;3.41;100.00;103228.31;5090577;28;20043;-55
2022/01/26 01:12:57;;;;;;;90.57;56.15;;;;;;;3.51;100.00;103212.16;5091767;28;20034;-54
2022/01/26 01:15:25;;;;;;;87.72;55.70;;;;;;;3.48;100.00;103205.97;5073818;28;20040;-50
2022/01/26 01:17:54;;;;;;;87.00;53.95;;;;;;;3.03;100.00;103122.00;5073740;28;20462;-56
2022/01/26 01:27:49;;;;;;;88.30;56.00;;;;;;;3.47;100.00;103204.22;5090164;28;20036;-53
2022/01/26 01:32:53;;;;;;;93.88;56.65;;;;;;;3.47;100.00;103202.50;5091716;28;20028;-55
2022/01/26 01:35:19;;;;;;;90.45;56.85;;;;;;;3.47;100.00;103192.09;5091494;28;20032;-54
2022/01/26 01:37:44;;;;;;;95.93;56.17;;;;;;;3.49;100.00;103197.34;5091461;28;20035;-57
2022/01/26 01:40:10;;;;;;;93.90;57.28;;;;;;;3.37;100.00;103172.66;5073408;28;20032;-50
2022/01/26 01:42:36;;;;;;;97.68;56.97;;;;;;;3.07;100.00;103121.25;5091193;28;20387;-52
2022/01/26 01:45:02;;;;;;;92.10;57.28;;;;;;;3.40;100.00;103172.75;5091507;28;20032;-56
2022/01/26 01:47:27;;;;;;;87.20;53.78;;;;;;;3.44;100.00;103178.06;5094707;28;20071;-53
2022/01/26 01:49:53;;;;;;;91.15;56.58;;;;;;;3.04;100.00;103105.53;5076803;28;20550;-53
2022/01/26 01:52:19;;;;;;;94.70;56.65;;;;;;;3.49;100.00;103190.41;5095119;28;20153;-54
2022/01/26 01:54:50;;;;;;;96.00;57.22;;;;;;;3.00;100.00;103095.88;5093522;28;20069;-52
2022/01/26 01:57:23;;;;;;;98.28;60.97;;;;;;;3.50;100.00;103187.00;5094790;28;20513;-56
2022/01/26 01:59:49;;;;;;;98.97;59.53;;;;;;;3.49;100.00;103186.91;5094639;28;20035;-51
2022/01/26 02:02:14;;;;;;;90.43;56.63;;;;;;;3.38;100.00;103153.63;5094693;28;20060;-58
2022/01/26 02:04:40;;;;;;;91.10;57.35;;;;;;;3.01;100.00;103088.13;5093557;28;20120;-52
2022/01/26 02:07:05;;;;;;;92.03;56.40;;;;;;;3.02;100.00;103089.91;5094646;28;20032;-51
2022/01/26 02:09:30;;;;;;;93.93;57.42;;;;;;;3.49;100.00;103164.38;5094402;28;20032;-58
2022/01/26 02:11:57;;;;;;;91.85;56.97;;;;;;;3.42;100.00;103154.56;5093190;28;20036;-54
2022/01/26 02:14:29;;;;;;;87.85;56.10;;;;;;;3.05;100.00;103089.09;5094888;28;20032;-52
2022/01/26 02:49:47;;;;;;;91.65;54.05;;;;;;;3.11;100.00;103069.41;5093906;28;20043;-50
2022/01/26 03:02:35;;;;;;;97.25;56.28;;;;;;;3.51;100.00;103125.34;5093588;28;20062;-55
2022/01/26 03:05:03;;;;;;;96.93;57.47;;;;;;;3.51;100.00;103122.75;5093728;28;20032;-51
2022/01/26 03:10:05;;;;;;;;;;;;;;;3.51;100.00;103110.63;5093899;28;20067;-51
2022/01/26 03:12:43;;;;;;;105.47;57.42;;;;;;;3.49;100.00;103096.69;5092261;28;19908;-51
2022/01/26 03:15:17;;;;;;;103.15;57.83;;;;;;;3.07;100.00;103019.78;5093613;28;20032;-53
2022/01/26 03:20:17;;;;;;;101.13;57.15;;;;;;;3.46;100.00;103103.50;5093196;28;20048;-52
2022/01/26 03:28:18;;;;;;;97.15;55.55;;;;;;;3.38;100.00;103111.97;5093177;28;20040;-56
2022/01/26 03:35:57;;;;;;;97.97;54.67;;;;;;;3.43;100.00;103104.28;5093244;28;20192;-52
2022/01/26 03:38:27;;;;;;;107.43;58.35;;;;;;;3.15;100.00;103041.75;5091513;28;20117;-53
2022/01/26 03:41:11;;;;;;;99.10;55.80;;;;;;;3.05;100.00;103024.06;5092924;28;20078;-54
2022/01/26 03:43:37;;;;;;;101.22;56.38;;;;;;;3.42;100.00;103090.38;5093024;28;20028;-55
2022/01/26 03:46:02;;;;;;;101.35;57.47;;;;;;;3.28;100.00;103064.72;5092898;28;20486;-57
2022/01/26 03:48:28;;;;;;;101.60;57.35;;;;;;;3.46;100.00;103098.28;5092793;28;20412;-55
2022/01/26 03:50:53;;;;;;;98.47;59.25;;;;;;;3.46;100.00;103117.41;5093150;28;20485;-56
2022/01/26 03:53:18;;;;;;;98.97;57.90;;;;;;;3.22;100.00;103086.25;5092953;28;20050;-53
2022/01/26 03:55:43;;;;;;;102.78;59.38;;;;;;;3.07;100.00;103061.41;5092678;28;20038;-52
2022/01/26 03:58:10;;;;;;;103.40;58.20;;;;;;;3.49;100.00;103143.53;5092592;28;20036;-54
2022/01/26 04:00:36;;;;;;;104.25;56.97;;;;;;;3.49;100.00;103134.84;5092581;28;20433;-54
2022/01/26 04:03:02;;;;;;;100.47;56.88;;;;;;;3.26;100.00;103095.03;5092162;28;20495;-53
2022/01/26 04:05:28;;;;;;;103.38;58.00;;;;;;;3.11;100.00;103079.81;5092504;28;20040;-55
2022/01/26 04:07:59;;;;;;;101.97;59.20;;;;;;;3.49;100.00;103134.84;5092229;28;20471;-54
2022/01/26 04:11:01;;;;;;;104.72;58.15;;;;;;;2.98;100.00;103055.94;5092370;28;20024;-55
2022/01/26 04:13:10;;;;;;;102.93;56.78;;;;;;;3.00;100.00;103062.06;5091878;28;20035;-58
2022/01/26 04:15:35;;;;;;;104.38;57.78;;;;;;;3.48;100.00;103152.19;5091284;28;20519;-58
2022/01/26 04:18:05;;;;;;;104.65;57.17;;;;;;;3.52;100.00;103171.41;5092202;28;20035;-50
2022/01/26 04:20:35;;;;;;;104.72;58.53;;;;;;;3.51;100.00;103161.81;5074468;28;20040;-54
2022/01/26 04:23:13;;;;;;;106.18;58.20;;;;;;;3.49;100.00;103166.09;5092216;28;20032;-48
2022/01/26 04:25:40;;;;;;;102.78;56.15;;;;;;;3.53;100.00;103145.44;5092325;28;20115;-51
2022/01/26 04:28:10;;;;;;;108.63;57.85;;;;;;;3.41;100.00;103104.22;5091099;28;20215;-55
2022/01/26 04:30:36;;;;;;;105.63;56.90;;;;;;;3.22;100.00;103051.53;5091093;28;20157;-54
2022/01/26 04:33:04;;;;;;;104.00;58.13;;;;;;;3.39;100.00;103087.69;5092124;28;20132;-54
2022/01/26 04:35:30;;;;;;;107.35;59.20;;;;;;;3.06;100.00;103012.84;5092071;28;20032;-51
2022/01/26 04:40:21;;;;;;;107.00;58.60;;;;;;;3.28;100.00;103030.91;5092301;28;20044;-56
2022/01/26 04:42:54;;;;;;;107.25;58.63;;;;;;;3.57;100.00;103081.28;5090791;28;20051;-57
2022/01/26 04:45:19;;;;;;;102.35;57.40;;;;;;;3.50;100.00;103080.22;5090724;28;20100;-53
2022/01/26 04:47:45;;;;;;;102.68;56.85;;;;;;;3.15;100.00;103026.16;5092203;28;20483;-59
2022/01/26 04:50:11;;;;;;;104.47;57.60;;;;;;;3.63;100.00;103097.09;5073932;28;20048;-57
2022/01/26 04:52:37;;;;;;;108.95;60.38;;;;;;;3.65;100.00;103092.84;5090658;28;20471;-52
2022/01/26 04:55:03;;;;;;;101.72;57.00;;;;;;;3.65;100.00;103098.06;5091869;28;20089;-53
2022/01/26 04:57:28;;;;;;;102.80;53.72;;;;;;;3.63;100.00;103100.59;5073900;28;20408;-56
2022/01/26 04:59:54;;;;;;;101.25;53.83;;;;;;;3.66;100.00;103092.88;5091860;28;20071;-54
2022/01/26 05:02:19;;;;;;;99.80;53.05;;;;;;;3.27;100.00;103035.22;5090413;28;20032;-52
2022/01/26 05:04:45;;;;;;;92.60;50.83;;;;;;;3.40;100.00;103044.31;5091755;28;20036;-56
2022/01/26 05:07:10;;;;;;;85.25;46.40;;;;;;;3.40;100.00;103029.56;5092040;28;20047;-55
2022/01/26 05:09:36;;;;;;;76.15;42.63;;;;;;;3.75;100.00;103085.38;5091928;28;20028;-56
2022/01/26 05:12:02;;;;;;;62.60;38.47;;;;;;;3.41;100.00;103007.03;5090678;28;20036;-52
2022/01/26 05:14:28;;;;;;;66.00;38.00;;;;;;;3.72;100.00;103050.53;5090414;28;20599;-54
2022/01/26 05:16:53;;;;;;;67.10;40.28;;;;;;;3.47;100.00;103012.44;5091779;28;20032;-52
2022/01/26 05:19:19;;;;;;;63.58;37.90;;;;;;;3.47;100.00;103011.56;5090393;28;20043;-53
2022/01/26 05:21:44;;;;;;;64.05;39.58;;;;;;;3.85;100.00;103099.56;5093952;28;20040;-51
2022/01/26 05:24:10;;;;;;;67.55;38.90;;;;;;;3.47;100.00;103034.97;5095694;28;20530;-59
2022/01/26 05:26:40;;;;;;;62.35;37.42;;;;;;;3.78;100.00;103082.84;5094192;28;20502;-55
2022/01/26 05:29:05;;;;;;;64.28;36.95;;;;;;;3.31;100.00;102990.25;5093994;28;20051;-54
2022/01/26 05:31:31;;;;;;;57.53;36.03;;;;;;;3.44;100.00;103029.69;5095383;28;20409;-56
2022/01/26 05:33:56;;;;;;;58.65;36.40;;;;;;;3.59;100.00;103066.63;5093952;28;20031;-58
2022/01/26 05:36:22;;;;;;;56.30;36.40;;;;;;;3.68;100.00;103085.09;5095346;28;20047;-53
2022/01/26 05:38:47;;;;;;;61.30;39.28;;;;;;;3.15;100.00;103000.97;5095203;28;20028;-51
2022/01/26 05:41:12;;;;;;;62.20;39.00;;;;;;;3.48;100.00;103074.06;5095277;28;20040;-51
2022/01/26 05:43:38;;;;;;;60.25;39.40;;;;;;;3.61;100.00;103099.69;5095025;28;20411;-58
2022/01/26 05:46:15;;;;;;;63.45;38.85;;;;;;;3.58;100.00;103104.78;5093942;28;20040;-55
2022/01/26 05:48:45;;;;;;;69.30;39.75;;;;;;;3.26;100.00;103045.59;5095267;28;20032;-56
2022/01/26 05:51:12;;;;;;;65.75;39.40;;;;;;;3.57;100.00;103112.53;5094101;28;20552;-52
2022/01/26 05:53:39;;;;;;;67.60;42.30;;;;;;;3.55;100.00;103109.91;5095311;28;20451;-55
2022/01/26 05:56:05;;;;;;;68.50;41.80;;;;;;;3.54;100.00;103123.75;5095066;28;20028;-53
2022/01/26 05:58:30;;;;;;;71.32;44.58;;;;;;;3.34;100.00;103097.06;5094825;28;20165;-52
2022/01/26 06:00:58;;;;;;;76.05;44.75;;;;;;;3.40;100.00;103120.69;5094839;28;20093;-53
2022/01/26 06:03:24;;;;;;;68.78;43.08;;;;;;;3.31;100.00;103107.38;5093161;28;20075;-53
2022/01/26 06:05:49;;;;;;;76.28;45.17;;;;;;;3.08;100.00;103073.59;5093567;28;20475;-56
2022/01/26 06:08:14;;;;;;;77.32;47.20;;;;;;;3.40;100.00;103119.81;5094561;28;20491;-56
2022/01/26 06:10:40;;;;;;;72.25;42.35;;;;;;;3.38;100.00;103122.38;5094523;28;20032;-54
2022/01/26 06:13:05;;;;;;;75.22;44.63;;;;;;;3.32;100.00;103090.03;5095162;28;20071;-52
2022/01/26 06:15:31;;;;;;;72.93;43.72;;;;;;;3.41;100.00;103092.94;5094440;28;20060;-55
2022/01/26 06:17:56;;;;;;;75.28;43.50;;;;;;;3.40;100.00;103076.44;5093741;28;20047;-50
2022/01/26 06:20:21;;;;;;;71.55;44.03;;;;;;;3.43;100.00;103083.47;5094575;28;20063;-55
2022/01/26 06:22:47;;;;;;;72.22;44.58;;;;;;;3.00;100.00;103003.13;5094573;28;20036;-52
2022/01/26 06:25:12;;;;;;;72.28;43.95;;;;;;;3.38;100.00;103080.72;5094301;28;20036;-53
2022/01/26 06:27:38;;;;;;;71.93;42.70;;;;;;;3.42;100.00;103082.56;5092923;28;20073;-54
2022/01/26 06:30:05;;;;;;;69.95;41.78;;;;;;;3.44;100.00;103090.44;5094210;28;20028;-59
2022/01/26 06:32:31;;;;;;;68.07;41.25;;;;;;;2.93;100.00;103001.13;5091616;28;20028;-53
2022/01/26 06:34:56;;;;;;;69.00;41.80;;;;;;;3.01;100.00;103009.16;5094190;28;20433;-56
2022/01/26 06:37:22;;;;;;;74.72;43.63;;;;;;;3.40;100.00;103075.56;5093824;28;20043;-51
2022/01/26 06:39:47;;;;;;;76.57;45.53;;;;;;;2.92;100.00;102994.16;5092499;28;20032;-52
2022/01/26 06:42:16;;;;;;;67.85;41.25;;;;;;;2.90;100.00;102998.44;5092544;28;20039;-51
2022/01/26 06:45:18;;;;;;;63.92;39.42;;;;;;;3.30;100.00;103078.66;5059797;28;20447;-55
2022/01/26 06:47:50;;;;;;;67.15;41.00;;;;;;;3.31;100.00;103101.28;5091254;28;20047;-52
2022/01/26 06:50:15;;;;;;;68.00;39.72;;;;;;;3.05;100.00;103069.19;5093739;28;20036;-52
2022/01/26 06:52:43;;;;;;;63.88;39.58;;;;;;;3.32;100.00;103114.34;5093356;28;20378;-55
2022/01/26 06:55:09;;;;;;;67.60;40.72;;;;;;;3.34;100.00;103109.19;5092019;28;20032;-55
2022/01/26 06:57:35;;;;;;;66.60;39.97;;;;;;;3.38;100.00;103111.06;5093413;28;20493;-57
2022/01/26 07:00:00;;;;;;;60.65;37.92;;;;;;;3.40;100.00;103105.06;5093744;28;20044;-50
2022/01/26 07:02:25;;;;;;;63.78;39.10;;;;;;;3.37;100.00;103099.78;5093168;28;20113;-54
2022/01/26 07:04:51;;;;;;;60.63;36.67;;;;;;;3.38;100.00;103108.47;5093262;28;20124;-54
2022/01/26 07:07:16;;;;;;;56.47;36.13;;;;;;;3.36;100.00;103099.69;5093407;28;20332;-53
2022/01/26 07:09:42;;;;;;;60.45;37.10;;;;;;;3.33;100.00;103102.19;5074991;28;20032;-51
2022/01/26 07:12:08;;;;;;;62.38;37.15;;;;;;;3.36;100.00;103116.22;5091991;28;20050;-54
2022/01/26 07:22:44;;;;;;;61.95;37.28;;;;;;;3.39;100.00;103136.25;5092139;28;20044;-56
2022/01/26 07:25:09;;;;;;;62.28;38.13;;;;;;;3.39;100.00;103133.66;5091936;28;20066;-59
2022/01/26 07:27:35;;;;;;;61.03;36.10;;;;;;;3.38;100.00;103143.19;5092984;28;20078;-52
2022/01/26 07:30:00;;;;;;;60.65;35.42;;;;;;;3.29;100.00;103124.66;5091580;28;20032;-56
2022/01/26 07:32:28;;;;;;;58.20;35.67;;;;;;;2.95;100.00;103061.03;5090443;28;20058;-57
2022/01/26 07:34:53;;;;;;;56.22;34.72;;;;;;;2.95;100.00;103066.22;5090299;28;20085;-54
2022/01/26 07:37:21;;;;;;;57.22;34.80;;;;;;;3.50;100.00;103140.13;5091224;28;20032;-54
2022/01/26 07:40:00;;;;;;;59.70;34.58;;;;;;;3.45;100.00;103132.97;5091570;28;20033;-54
2022/01/26 07:42:25;;;;;;;49.33;30.50;;;;;;;3.52;100.00;103133.22;5091697;28;20028;-54
2022/01/26 07:44:51;;;;;;;56.50;33.63;;;;;;;3.58;100.00;103129.94;5092549;28;20031;-51
2022/01/26 07:47:16;;;;;;;48.55;30.95;;;;;;;3.57;100.00;103136.88;5092708;28;20028;-56
2022/01/26 07:49:42;;;;;;;53.88;32.90;;;;;;;3.61;100.00;103145.66;5092677;28;20119;-53
2022/01/26 07:52:07;;;;;;;54.65;31.73;;;;;;;3.57;100.00;103128.16;5091550;28;20032;-54
2022/01/26 07:54:32;;;;;;;54.05;33.47;;;;;;;3.48;100.00;103101.81;5092736;28;20036;-55
2022/01/26 07:56:58;;;;;;;50.22;33.15;;;;;;;3.53;100.00;103116.78;5092339;28;20034;-54
2022/01/26 07:59:23;;;;;;;51.15;30.48;;;;;;;3.65;100.00;103143.19;5092554;28;20368;-53
2022/01/26 08:01:48;;;;;;;55.92;33.13;;;;;;;3.68;100.00;103132.00;5092272;28;20438;-54
2022/01/26 08:04:14;;;;;;;56.58;33.15;;;;;;;3.67;100.00;103138.94;5092037;28;20526;-56
2022/01/26 08:06:40;;;;;;;51.92;32.60;;;;;;;3.69;100.00;103136.38;5091027;28;20051;-55
2022/01/26 08:09:05;;;;;;;56.50;32.25;;;;;;;3.68;100.00;103145.91;5092471;28;20036;-52
2022/01/26 08:11:31;;;;;;;55.47;32.85;;;;;;;3.56;100.00;103109.03;5092212;28;20112;-56
2022/01/26 08:13:58;;;;;;;50.53;30.27;;;;;;;3.70;100.00;103131.22;5092225;28;20434;-57
2022/01/26 08:16:23;;;;;;;54.80;31.25;;;;;;;3.71;100.00;103132.97;5092079;28;20479;-53
2022/01/26 08:18:49;;;;;;;49.00;29.63;;;;;;;3.32;100.00;103053.59;5092325;28;20042;-55
2022/01/26 08:21:15;;;;;;;47.35;27.40;;;;;;;3.60;100.00;103103.09;5090975;28;20467;-49
2022/01/26 08:23:43;;;;;;;54.95;29.83;;;;;;;3.70;100.00;103115.59;5092082;28;20427;-55
2022/01/26 08:26:09;;;;;;;48.25;29.15;;;;;;;3.63;100.00;103108.41;5092230;28;20435;-57
2022/01/26 08:28:44;;;;;;;49.28;29.25;;;;;;;3.67;100.00;103114.63;5092091;28;20036;-50
2022/01/26 08:31:12;;;;;;;43.30;28.15;;;;;;;3.72;100.00;103124.34;5092102;28;20035;-53
2022/01/26 08:33:37;;;;;;;49.38;29.17;;;;;;;3.23;100.00;103045.50;5092208;28;20119;-56
2022/01/26 08:36:03;;;;;;;52.58;31.60;;;;;;;3.28;100.00;103047.41;5090726;28;20100;-54
2022/01/26 08:38:28;;;;;;;53.78;31.52;;;;;;;3.65;100.00;103114.53;5092074;28;20173;-52
2022/01/26 08:40:54;;;;;;;57.15;32.35;;;;;;;3.77;100.00;103130.56;5092048;28;20123;-58
2022/01/26 08:43:19;;;;;;;53.88;31.88;;;;;;;3.39;100.00;103042.53;5091948;28;20032;-54
2022/01/26 08:45:44;;;;;;;52.47;30.63;;;;;;;3.51;100.00;103065.47;5092193;28;20039;-51
2022/01/26 08:48:10;;;;;;;50.30;31.92;;;;;;;3.73;100.00;103105.28;5091187;28;20102;-55
2022/01/26 08:50:36;;;;;;;62.03;32.85;;;;;;;3.85;100.00;103118.66;5090933;28;20036;-56
2022/01/26 08:53:02;;;;;;;52.75;31.27;;;;;;;3.48;100.00;103042.81;5090868;28;20032;-50
2022/01/26 08:55:27;;;;;;;59.05;32.08;;;;;;;3.82;100.00;103108.16;5090838;28;20203;-57
2022/01/26 08:57:52;;;;;;;60.13;34.00;;;;;;;3.54;100.00;103056.03;5094781;28;20028;-53
2022/01/26 09:00:18;;;;;;;57.33;31.02;;;;;;;3.88;100.00;103110.94;5095830;28;20380;-52
2022/01/26 09:02:44;;;;;;;54.80;30.00;;;;;;;3.47;100.00;103027.16;5095856;28;20390;-49
2022/01/26 09:05:10;;;;;;;54.50;31.58;;;;;;;3.66;100.00;103065.94;5095769;28;20501;-53
2022/01/26 09:07:36;;;;;;;54.30;31.95;;;;;;;3.63;100.00;103052.84;5095637;28;20059;-56
2022/01/26 09:10:03;;;;;;;51.60;30.13;;;;;;;4.05;100.00;103119.31;5095678;28;20359;-54
2022/01/26 09:12:29;;;;;;;53.08;30.02;;;;;;;4.06;100.00;103104.56;5114748;28;20032;-53
2022/01/26 09:14:56;;;;;;;48.78;28.83;;;;;;;3.71;100.00;103034.00;5116085;28;20063;-56
2022/01/26 09:17:23;;;;;;;45.92;28.23;;;;;;;3.65;100.00;103032.97;5116412;28;20114;-55
2022/01/26 09:19:49;;;;;;;47.10;27.45;;;;;;;3.78;100.00;103033.38;5094889;28;20040;-58
2022/01/26 09:22:16;;;;;;;43.65;28.10;;;;;;;4.23;100.00;103125.03;5095443;28;21007;-59
2022/01/26 09:24:43;;;;;;;45.35;28.00;;;;;;;4.28;100.00;103123.47;5095575;28;20032;-56
2022/01/26 09:27:10;;;;;;;37.20;27.25;;;;;;;4.37;100.00;103118.53;5076926;28;20506;-56
2022/01/26 09:29:35;;;;;;;40.10;27.05;;;;;;;3.94;100.00;103047.75;5095614;28;20429;-59
2022/01/26 09:32:04;;;;;;;42.60;27.90;;;;;;;4.41;100.00;103136.00;5112182;28;20032;-55
2022/01/26 09:34:35;;;;;;;43.20;27.35;;;;;;;4.45;100.00;103116.13;5113704;28;20036;-52
2022/01/26 09:37:03;;;;;;;41.00;27.77;;;;;;;4.49;100.00;103108.44;5109018;28;20043;-51
2022/01/26 09:39:30;;;;;;;39.72;28.75;;;;;;;4.54;100.00;103124.22;5113813;28;20028;-52
2022/01/26 09:41:58;;;;;;;35.55;27.00;;;;;;;4.57;100.00;103115.59;5110938;28;20054;-54
2022/01/26 09:44:26;;;;;;;43.85;28.05;;;;;;;4.61;100.00;103134.00;5111318;28;20016;-53
2022/01/26 09:46:53;;;;;;;38.60;28.35;;;;;;;4.64;100.00;103147.09;5102921;28;20028;-58
2022/01/26 09:49:20;;;;;;;35.90;25.75;;;;;;;4.67;100.00;103136.75;5108362;28;20028;-54
2022/01/26 09:51:49;;;;;;;36.75;25.52;;;;;;;4.65;100.00;103124.53;5106183;28;20036;-51
2022/01/26 09:54:20;;;;;;;36.53;25.83;;;;;;;4.60;100.00;103103.53;5106550;28;20043;-51
2022/01/26 09:56:52;;;;;;;38.90;27.00;;;;;;;4.83;100.00;103117.22;5106180;28;20036;-53
2022/01/26 09:59:19;;;;;;;35.97;25.38;;;;;;;4.85;100.00;103119.00;5106604;28;20527;-53
2022/01/26 10:01:50;;;;;;;37.13;23.48;;;;;;;4.89;100.00;103120.88;5103786;28;20143;-57
2022/01/26 10:04:39;;;;;;;37.75;26.00;;;;;;;4.93;100.00;103122.69;5107867;28;20040;-50
2022/01/26 10:07:41;;;;;;;34.97;25.10;;;;;;;4.90;100.00;103103.50;5114398;28;20028;-51
2022/01/26 10:15:39;;;;;;;36.30;25.17;;;;;;;5.14;100.00;103158.94;5094757;28;20047;-54
2022/01/26 10:18:12;;;;;;;34.30;23.25;;;;;;;5.14;100.00;103138.06;5094506;28;20056;-52
2022/01/26 10:20:47;;;;;;;32.53;25.20;;;;;;;5.13;100.00;103140.63;5093331;28;20032;-56
2022/01/26 10:23:24;;;;;;;33.05;23.80;;;;;;;4.84;100.00;103085.06;5093924;28;20115;-54
2022/01/26 10:26:00;;;;;;;35.45;24.00;;;;;;;5.23;100.00;103153.06;5093210;28;20035;-57
2022/01/26 10:28:25;;;;;;;37.75;24.88;;;;;;;5.23;100.00;103126.97;5094489;28;20031;-49
2022/01/26 10:30:50;;;;;;;36.08;25.42;;;;;;;5.34;100.00;103135.97;5094096;28;20028;-55
2022/01/26 10:33:16;;;;;;;33.80;24.73;;;;;;;5.40;100.00;103143.97;5094412;28;20032;-53
2022/01/26 10:35:42;;;;;;;37.45;24.25;;;;;;;5.04;100.00;103084.75;5094308;28;20071;-56
2022/01/26 10:38:07;;;;;;;36.67;25.98;;;;;;;5.06;100.00;103082.16;5093826;28;20036;-55
2022/01/26 10:40:34;;;;;;;39.53;25.38;;;;;;;5.50;100.00;103143.34;5092889;28;20044;-54
2022/01/26 10:43:04;;;;;;;36.15;25.25;;;;;;;5.54;100.00;103148.69;5092770;28;20093;-54
2022/01/26 10:45:33;;;;;;;34.25;22.77;;;;;;;5.61;100.00;103148.00;5093586;28;20437;-48
2022/01/26 10:53:56;;;;;;;31.45;22.38;;;;;;;5.39;100.00;103067.34;5093807;28;20032;-52
2022/01/26 10:56:22;;;;;;;34.67;22.35;;;;;;;5.84;100.00;103132.84;5092672;28;20330;-49
2022/01/26 10:58:48;;;;;;;31.17;21.27;;;;;;;5.79;100.00;103125.75;5075366;28;20032;-50
2022/01/26 11:01:17;;;;;;;32.88;21.25;;;;;;;6.01;100.00;103131.53;5094682;28;20085;-51
2022/01/26 11:03:43;;;;;;;27.98;20.58;;;;;;;5.63;100.00;103038.31;5092985;28;20109;-50
2022/01/26 11:06:09;;;;;;;30.27;21.67;;;;;;;6.13;100.00;103118.75;5094126;28;20103;-49
2022/01/26 11:08:39;;;;;;;31.35;21.70;;;;;;;6.18;100.00;103122.38;5092457;28;20028;-50
2022/01/26 11:11:04;;;;;;;31.52;19.85;;;;;;;6.15;100.00;103101.38;5075974;28;20028;-50
2022/01/26 11:13:34;;;;;;;32.38;21.15;;;;;;;6.25;100.00;103104.19;5093526;28;20134;-49
2022/01/26 11:16:10;;;;;;;27.70;21.42;;;;;;;6.20;100.00;103102.34;5092986;28;20475;-50
2022/01/26 11:18:58;;;;;;;26.67;20.02;;;;;;;5.93;100.00;103059.03;5093525;28;20032;-52
2022/01/26 11:21:36;;;;;;;29.40;20.52;;;;;;;6.32;100.00;103114.81;5094207;28;20032;-49
2022/01/26 11:24:16;;;;;;;30.67;20.88;;;;;;;6.12;100.00;103067.31;5092404;28;20031;-47
2022/01/26 11:26:44;;;;;;;27.45;19.52;;;;;;;6.38;100.00;103116.66;5094962;28;20024;-52
2022/01/26 11:29:18;;;;;;;29.23;20.38;;;;;;;6.35;100.00;103121.81;5075154;28;20086;-55
2022/01/26 11:31:44;;;;;;;30.38;20.67;;;;;;;6.23;100.00;103089.34;5093093;28;20024;-57
2022/01/26 11:34:11;;;;;;;28.40;18.88;;;;;;;6.34;100.00;103106.97;5075073;28;20039;-50
2022/01/26 11:36:41;;;;;;;26.92;19.30;;;;;;;6.44;100.00;103096.75;5091997;28;20032;-51
2022/01/26 11:45:04;;;;;;;28.02;18.92;;;;;;;6.52;100.00;103086.44;5051421;28;20128;-50
2022/01/26 11:45:27;;;;;;;25.08;18.00;;;;;;;6.15;100.00;103017.69;5092835;28;20040;-55
2022/01/26 11:48:05;;;;;;;24.23;18.98;;;;;;;6.66;100.00;103091.06;5092034;28;20026;-52
2022/01/26 11:50:31;;;;;;;25.45;18.02;;;;;;;6.76;100.00;103097.38;5091437;28;20043;-54
2022/01/26 11:53:08;;;;;;;28.65;18.17;;;;;;;6.78;100.00;103095.66;5091333;28;20028;-56
2022/01/26 11:55:34;;;;;;;27.80;19.45;;;;;;;6.85;100.00;103110.66;5074735;28;20024;-49
2022/01/26 11:58:07;;;;;;;22.75;17.42;;;;;;;6.92;100.00;103095.94;5093279;28;20113;-54
2022/01/26 12:00:41;;;;;;;26.52;18.13;;;;;;;6.92;100.00;103096.78;5093011;28;20479;-51
2022/01/26 12:03:25;;;;;;;25.40;17.70;;;;;;;6.92;100.00;103090.72;5093027;28;20051;-49
2022/01/26 12:05:56;;;;;;;22.33;17.85;;;;;;;6.55;100.00;103042.00;5093409;28;20028;-54
2022/01/26 12:08:32;;;;;;;22.65;17.45;;;;;;;6.90;100.00;103098.50;5093703;28;20052;-50
2022/01/26 12:10:58;;;;;;;24.63;17.27;;;;;;;6.50;100.00;103028.84;5092384;28;20191;-49
2022/01/26 12:13:26;;;;;;;21.30;16.77;;;;;;;6.80;100.00;103089.59;5092350;28;20038;-50
2022/01/26 12:15:59;;;;;;;20.55;16.83;;;;;;;6.55;100.00;103031.53;5091277;28;20132;-48
2022/01/26 12:34:53;;;;;;;24.65;16.45;;;;;;;6.69;100.00;103069.31;5054469;28;20049;-49
2022/01/26 12:45:23;;;;;;;22.05;16.02;;;;;;;6.51;100.00;103035.81;5091990;28;20040;-50
2022/01/26 12:47:53;;;;;;;23.38;15.73;;;;;;;6.18;100.00;102988.09;5091426;28;20028;-50
2022/01/26 12:50:19;;;;;;;22.98;15.13;;;;;;;6.66;100.00;103072.75;5089902;28;20517;-52
2022/01/26 12:52:50;;;;;;;20.27;14.98;;;;;;;6.57;100.00;103059.50;5089001;28;20043;-51
2022/01/26 12:55:23;;;;;;;20.20;13.68;;;;;;;6.67;100.00;103061.44;5091740;28;20032;-50
2022/01/26 12:57:49;;;;;;;25.48;16.10;;;;;;;6.70;100.00;103058.88;5091524;28;20036;-52
2022/01/26 13:00:16;;;;;;;23.08;15.23;;;;;;;6.68;100.00;103051.88;5091715;28;20119;-53
2022/01/26 13:02:41;;;;;;;22.45;15.30;;;;;;;6.60;100.00;103043.84;5091745;28;20100;-50
2022/01/26 13:05:07;;;;;;;23.30;15.30;;;;;;;6.22;100.00;102961.16;5090809;28;20064;-47
2022/01/26 13:07:32;;;;;;;26.55;17.15;;;;;;;6.67;100.00;103045.75;5073751;28;20162;-50
2022/01/26 13:09:57;;;;;;;20.80;15.50;;;;;;;6.68;100.00;103047.47;5091746;28;20028;-49
2022/01/26 13:12:32;;;;;;;26.35;15.27;;;;;;;6.52;100.00;103011.44;5090552;28;20036;-51
2022/01/26 13:15:12;;;;;;;22.85;15.77;;;;;;;6.72;100.00;103040.59;5090602;28;20032;-50
2022/01/26 13:17:44;;;;;;;24.55;15.13;;;;;;;6.65;100.00;103018.69;5091936;28;20468;-51
2022/01/26 13:25:50;;;;;;;25.20;16.67;;;;;;;6.66;100.00;103032.63;5090716;28;20118;-50
2022/01/26 13:36:37;;;;;;;27.60;16.92;;;;;;;6.60;100.00;103022.91;5090675;28;20380;-51
2022/01/26 13:47:08;;;;;;;27.83;16.48;;;;;;;6.52;100.00;103008.81;5095147;28;20086;-54
2022/01/26 13:49:43;;;;;;;24.52;15.68;;;;;;;6.51;100.00;103022.75;5093583;28;20043;-51
2022/01/26 14:00:08;;;;;;;28.00;17.88;;;;;;;6.53;100.00;103007.09;5095046;28;20032;-50
2022/01/26 14:02:36;;;;;;;30.30;17.58;;;;;;;6.50;100.00;103023.63;5094641;28;20020;-54
2022/01/26 14:05:01;;;;;;;28.65;17.95;;;;;;;6.41;100.00;103001.63;5094516;28;20044;-50